AAL3 KPHL-KNZY
Flight info
| Callsign | AAL3 |
|---|---|
| Flight time | N/A |
| Altitude | 38000 |
| Route | MXE BEETS Q430 VINSE J110 VHP J80 MCI J24 SLN/N0503F300 J102 ALS J110 RSK J10 HIPPI PKE CHASR2 |
| Aircraft | B77W/H-SDE1E2E3FGHIJ2J3J4J5M1RWXY/LB1D1 |
Departure
| Time | 2026-05-06 11:21 |
|---|---|
| Airport | Philadelphia International Airport (KPHL) |
Arrival
| Time | N/A |
|---|---|
| Airport | North Island Naval Air Station-Halsey Field (KNZY) |
| Time | Latitude | Longitude | Altitude | Speed | Heading |
|---|---|---|---|---|---|
| 2026-05-06 11:17 | 39.87564 | -75.24234 | 21 ft | 0 kts | 50° |
| 2026-05-06 11:17 | 39.87565 | -75.24233 | 21 ft | 0 kts | 52° |
| 2026-05-06 11:18 | 39.87555 | -75.24217 | 21 ft | 5 kts | 177° |
| 2026-05-06 11:18 | 39.87514 | -75.24216 | 21 ft | 11 kts | 180° |
| 2026-05-06 11:18 | 39.87401 | -75.24226 | 22 ft | 20 kts | 185° |
| 2026-05-06 11:18 | 39.87278 | -75.24134 | 22 ft | 25 kts | 95° |
| 2026-05-06 11:19 | 39.87341 | -75.23766 | 22 ft | 36 kts | 75° |
| 2026-05-06 11:19 | 39.87410 | -75.23429 | 22 ft | 37 kts | 75° |
| 2026-05-06 11:19 | 39.87449 | -75.23131 | 22 ft | 27 kts | 123° |
| 2026-05-06 11:19 | 39.87291 | -75.23027 | 23 ft | 24 kts | 161° |
| 2026-05-06 11:20 | 39.87149 | -75.23044 | 23 ft | 24 kts | 249° |
| 2026-05-06 11:20 | 39.87060 | -75.23258 | 23 ft | 29 kts | 245° |
| 2026-05-06 11:20 | 39.86975 | -75.23423 | 23 ft | 6 kts | 158° |
| 2026-05-06 11:20 | 39.86933 | -75.23403 | 23 ft | 12 kts | 165° |
| 2026-05-06 11:21 | 39.86889 | -75.23480 | 23 ft | 27 kts | 256° |
| 2026-05-06 11:21 | 39.86678 | -75.24550 | 25 ft | 149 kts | 254° |
| 2026-05-06 11:21 | 39.86351 | -75.26129 | 375 ft | 198 kts | 252° |
| 2026-05-06 11:21 | 39.86177 | -75.27918 | 1587 ft | 211 kts | 271° |
| 2026-05-06 11:22 | 39.86338 | -75.29060 | 2793 ft | 198 kts | 272° |
| 2026-05-06 11:22 | 39.86669 | -75.31369 | 4432 ft | 207 kts | 274° |
| 2026-05-06 11:22 | 39.86844 | -75.32591 | 5208 ft | 213 kts | 275° |
| 2026-05-06 11:22 | 39.87215 | -75.35188 | 6717 ft | 234 kts | 276° |
| 2026-05-06 11:23 | 39.87416 | -75.36593 | 7476 ft | 246 kts | 275° |
| 2026-05-06 11:23 | 39.87845 | -75.39576 | 9178 ft | 261 kts | 275° |
| 2026-05-06 11:23 | 39.88068 | -75.41120 | 10133 ft | 263 kts | 275° |
| 2026-05-06 11:23 | 39.88528 | -75.44331 | 11616 ft | 284 kts | 275° |
| 2026-05-06 11:24 | 39.88895 | -75.46903 | 12704 ft | 299 kts | 275° |
| 2026-05-06 11:24 | 39.89285 | -75.49631 | 13807 ft | 314 kts | 275° |
| 2026-05-06 11:24 | 39.89695 | -75.52489 | 14866 ft | 330 kts | 276° |
| 2026-05-06 11:24 | 39.90128 | -75.55508 | 15910 ft | 345 kts | 276° |
| 2026-05-06 11:25 | 39.90579 | -75.58638 | 16895 ft | 361 kts | 276° |
| 2026-05-06 11:25 | 39.91052 | -75.61917 | 17863 ft | 376 kts | 277° |
| 2026-05-06 11:25 | 39.91546 | -75.65324 | 18827 ft | 390 kts | 277° |
| 2026-05-06 11:25 | 39.91798 | -75.67687 | 19532 ft | 395 kts | 271° |
| 2026-05-06 11:26 | 39.91968 | -75.72513 | 21202 ft | 400 kts | 270° |
| 2026-05-06 11:26 | 39.92068 | -75.76142 | 22507 ft | 400 kts | 270° |
| 2026-05-06 11:26 | 39.92168 | -75.79798 | 23646 ft | 403 kts | 271° |
| 2026-05-06 11:26 | 39.92262 | -75.83249 | 24607 ft | 408 kts | 271° |
| 2026-05-06 11:27 | 39.92345 | -75.86311 | 25458 ft | 411 kts | 271° |
| 2026-05-06 11:27 | 39.92446 | -75.90087 | 26459 ft | 414 kts | 271° |
| 2026-05-06 11:27 | 39.92546 | -75.93833 | 27361 ft | 417 kts | 271° |
| 2026-05-06 11:27 | 39.92647 | -75.97691 | 28130 ft | 423 kts | 271° |
| 2026-05-06 11:28 | 39.92714 | -76.00246 | 28617 ft | 426 kts | 271° |
| 2026-05-06 11:28 | 39.92848 | -76.05462 | 29677 ft | 430 kts | 271° |
| 2026-05-06 11:28 | 39.92947 | -76.09380 | 30543 ft | 429 kts | 271° |
| 2026-05-06 11:28 | 39.93044 | -76.13229 | 31603 ft | 422 kts | 272° |
| 2026-05-06 11:29 | 39.93106 | -76.15745 | 32412 ft | 415 kts | 272° |
| 2026-05-06 11:29 | 39.93196 | -76.19464 | 33524 ft | 404 kts | 273° |
| 2026-05-06 11:29 | 39.93314 | -76.24342 | 34806 ft | 395 kts | 274° |
| 2026-05-06 11:29 | 39.93398 | -76.27894 | 35451 ft | 393 kts | 273° |
| 2026-05-06 11:30 | 39.93483 | -76.31492 | 35861 ft | 397 kts | 274° |
| 2026-05-06 11:30 | 39.93655 | -76.38924 | 35865 ft | 414 kts | 273° |
| 2026-05-06 11:31 | 39.93825 | -76.46564 | 35858 ft | 419 kts | 273° |
| 2026-05-06 11:31 | 39.93991 | -76.54244 | 35856 ft | 420 kts | 273° |
| 2026-05-06 11:32 | 39.94152 | -76.61904 | 35846 ft | 419 kts | 272° |
| 2026-05-06 11:32 | 39.94291 | -76.68742 | 35866 ft | 419 kts | 272° |
| 2026-05-06 11:33 | 39.94410 | -76.74741 | 35872 ft | 419 kts | 272° |
| 2026-05-06 11:33 | 39.94558 | -76.82410 | 35866 ft | 418 kts | 272° |
| 2026-05-06 11:34 | 39.94723 | -76.91341 | 35858 ft | 418 kts | 272° |
| 2026-05-06 11:34 | 39.94859 | -76.98994 | 35853 ft | 417 kts | 272° |
| 2026-05-06 11:35 | 39.94990 | -77.06625 | 35851 ft | 417 kts | 272° |
| 2026-05-06 11:35 | 39.95115 | -77.14221 | 35848 ft | 417 kts | 272° |
| 2026-05-06 11:36 | 39.95216 | -77.20577 | 35835 ft | 417 kts | 272° |
| 2026-05-06 11:36 | 39.95351 | -77.29465 | 35840 ft | 416 kts | 272° |
| 2026-05-06 11:37 | 39.95444 | -77.35786 | 35844 ft | 416 kts | 272° |
| 2026-05-06 11:37 | 39.95567 | -77.44664 | 35838 ft | 416 kts | 272° |
| 2026-05-06 11:38 | 39.95742 | -77.50976 | 35849 ft | 415 kts | 274° |
| 2026-05-06 11:38 | 39.95998 | -77.58594 | 35849 ft | 415 kts | 273° |
| 2026-05-06 11:39 | 39.96280 | -77.67439 | 35868 ft | 415 kts | 273° |
| 2026-05-06 11:39 | 39.96515 | -77.75078 | 35868 ft | 416 kts | 273° |
| 2026-05-06 11:40 | 39.96742 | -77.82635 | 35869 ft | 416 kts | 273° |
| 2026-05-06 11:40 | 39.96960 | -77.90128 | 35864 ft | 416 kts | 273° |
| 2026-05-06 11:41 | 39.97168 | -77.97682 | 35861 ft | 416 kts | 272° |
| 2026-05-06 11:41 | 39.97271 | -78.03963 | 35856 ft | 415 kts | 272° |
| 2026-05-06 11:42 | 39.97411 | -78.12794 | 35851 ft | 415 kts | 272° |
| 2026-05-06 11:42 | 39.97528 | -78.20333 | 35855 ft | 414 kts | 271° |
| 2026-05-06 11:43 | 39.97641 | -78.27904 | 35853 ft | 413 kts | 272° |
| 2026-05-06 11:43 | 39.97750 | -78.35418 | 35847 ft | 413 kts | 271° |
| 2026-05-06 11:44 | 39.97904 | -78.46697 | 35849 ft | 413 kts | 271° |
| 2026-05-06 11:44 | 39.98001 | -78.54259 | 35835 ft | 412 kts | 271° |
| 2026-05-06 11:45 | 39.98077 | -78.60500 | 35826 ft | 412 kts | 272° |
| 2026-05-06 11:45 | 39.98180 | -78.69322 | 35852 ft | 412 kts | 271° |
| 2026-05-06 11:46 | 39.98262 | -78.76871 | 35847 ft | 411 kts | 271° |
| 2026-05-06 11:46 | 39.98340 | -78.84392 | 35845 ft | 411 kts | 271° |
| 2026-05-06 11:47 | 39.98412 | -78.91908 | 35844 ft | 410 kts | 270° |
| 2026-05-06 11:47 | 39.98479 | -78.99383 | 35829 ft | 408 kts | 271° |
| 2026-05-06 11:48 | 39.98541 | -79.06850 | 35830 ft | 408 kts | 271° |
| 2026-05-06 11:48 | 39.98589 | -79.13044 | 35830 ft | 408 kts | 270° |
| 2026-05-06 11:49 | 39.98651 | -79.21777 | 35826 ft | 407 kts | 271° |
| 2026-05-06 11:49 | 39.98699 | -79.29214 | 35816 ft | 407 kts | 271° |
| 2026-05-06 11:50 | 39.98741 | -79.36633 | 35812 ft | 407 kts | 271° |
| 2026-05-06 11:50 | 39.98774 | -79.42862 | 35817 ft | 406 kts | 271° |
| 2026-05-06 11:51 | 39.98808 | -79.50277 | 35818 ft | 406 kts | 270° |
| 2026-05-06 11:51 | 39.98842 | -79.58970 | 35818 ft | 405 kts | 271° |
| 2026-05-06 11:52 | 39.98866 | -79.66398 | 35835 ft | 405 kts | 271° |
| 2026-05-06 11:52 | 39.98885 | -79.73827 | 35843 ft | 406 kts | 270° |
| 2026-05-06 11:53 | 39.98897 | -79.79961 | 35841 ft | 405 kts | 270° |
| 2026-05-06 11:53 | 39.98909 | -79.88612 | 35835 ft | 404 kts | 270° |
| 2026-05-06 11:54 | 39.98914 | -79.95123 | 35827 ft | 404 kts | 270° |
| 2026-05-06 11:54 | 39.98914 | -80.02560 | 35832 ft | 405 kts | 270° |
| 2026-05-06 11:55 | 39.98911 | -80.09954 | 35824 ft | 404 kts | 270° |
| 2026-05-06 11:55 | 39.98902 | -80.17333 | 35825 ft | 403 kts | 270° |
| 2026-05-06 11:56 | 39.98889 | -80.24657 | 35825 ft | 403 kts | 270° |
| 2026-05-06 11:56 | 39.98871 | -80.32043 | 35820 ft | 401 kts | 270° |
| 2026-05-06 11:57 | 39.98849 | -80.39372 | 35821 ft | 401 kts | 270° |
| 2026-05-06 11:57 | 39.98822 | -80.46671 | 35809 ft | 400 kts | 270° |
| 2026-05-06 11:58 | 39.98790 | -80.54012 | 35804 ft | 400 kts | 270° |
| 2026-05-06 11:58 | 39.98754 | -80.61320 | 35804 ft | 399 kts | 270° |
| 2026-05-06 11:59 | 39.98713 | -80.68632 | 35829 ft | 400 kts | 269° |
| 2026-05-06 11:59 | 39.98668 | -80.75893 | 35824 ft | 399 kts | 270° |
| 2026-05-06 12:00 | 39.98618 | -80.83210 | 35820 ft | 399 kts | 269° |
| 2026-05-06 12:00 | 39.98564 | -80.90455 | 35816 ft | 398 kts | 269° |
| 2026-05-06 12:01 | 39.98505 | -80.97722 | 35816 ft | 397 kts | 269° |
| 2026-05-06 12:01 | 39.98442 | -81.04977 | 35806 ft | 397 kts | 270° |
| 2026-05-06 12:02 | 39.98375 | -81.12222 | 35817 ft | 396 kts | 270° |
| 2026-05-06 12:02 | 39.98302 | -81.19479 | 35828 ft | 396 kts | 269° |
| 2026-05-06 12:03 | 39.98231 | -81.26289 | 35845 ft | 395 kts | 269° |
| 2026-05-06 12:03 | 39.98158 | -81.32809 | 35843 ft | 395 kts | 269° |
| 2026-05-06 12:04 | 39.98074 | -81.40012 | 35843 ft | 395 kts | 269° |
| 2026-05-06 12:04 | 39.97985 | -81.47240 | 35845 ft | 395 kts | 269° |
| 2026-05-06 12:05 | 39.97892 | -81.54430 | 35843 ft | 395 kts | 269° |
| 2026-05-06 12:05 | 39.97793 | -81.61645 | 35846 ft | 395 kts | 270° |
| 2026-05-06 12:06 | 39.97708 | -81.67657 | 35875 ft | 394 kts | 269° |
| 2026-05-06 12:06 | 39.97584 | -81.76067 | 35878 ft | 394 kts | 268° |
| 2026-05-06 12:07 | 39.97473 | -81.83269 | 35878 ft | 395 kts | 268° |
| 2026-05-06 12:07 | 39.97357 | -81.90479 | 35867 ft | 394 kts | 269° |
| 2026-05-06 12:08 | 39.97237 | -81.97686 | 35858 ft | 395 kts | 268° |
| 2026-05-06 12:08 | 39.97112 | -82.04929 | 35869 ft | 395 kts | 268° |
| 2026-05-06 12:09 | 39.96983 | -82.12122 | 35860 ft | 395 kts | 268° |
| 2026-05-06 12:09 | 39.96849 | -82.19349 | 35860 ft | 395 kts | 268° |
| 2026-05-06 12:10 | 39.96711 | -82.26562 | 35860 ft | 395 kts | 269° |
| 2026-05-06 12:10 | 39.96568 | -82.33786 | 35862 ft | 394 kts | 268° |
| 2026-05-06 12:11 | 39.96421 | -82.41008 | 35860 ft | 395 kts | 268° |
| 2026-05-06 12:11 | 39.96268 | -82.48262 | 35855 ft | 395 kts | 268° |
| 2026-05-06 12:12 | 39.96112 | -82.55471 | 35858 ft | 394 kts | 268° |
| 2026-05-06 12:12 | 39.95952 | -82.62688 | 35861 ft | 394 kts | 269° |
| 2026-05-06 12:13 | 39.95795 | -82.69524 | 35891 ft | 395 kts | 268° |
| 2026-05-06 12:13 | 39.95626 | -82.76736 | 35888 ft | 396 kts | 268° |
| 2026-05-06 12:14 | 39.95450 | -82.84023 | 35891 ft | 396 kts | 268° |
| 2026-05-06 12:14 | 39.95302 | -82.90018 | 35894 ft | 396 kts | 268° |
| 2026-05-06 12:15 | 39.95088 | -82.98494 | 35891 ft | 396 kts | 268° |
| 2026-05-06 12:15 | 39.94899 | -83.05751 | 35890 ft | 395 kts | 268° |
| 2026-05-06 12:16 | 39.94707 | -83.13000 | 35887 ft | 394 kts | 268° |
| 2026-05-06 12:16 | 39.94511 | -83.20170 | 35885 ft | 394 kts | 268° |
| 2026-05-06 12:17 | 39.94310 | -83.27393 | 35888 ft | 394 kts | 268° |
| 2026-05-06 12:17 | 39.94106 | -83.34589 | 35894 ft | 394 kts | 268° |
| 2026-05-06 12:18 | 39.93898 | -83.41741 | 35893 ft | 393 kts | 268° |
| 2026-05-06 12:18 | 39.93684 | -83.48945 | 35889 ft | 393 kts | 268° |
| 2026-05-06 12:19 | 39.93467 | -83.56104 | 35887 ft | 392 kts | 268° |
| 2026-05-06 12:19 | 39.93244 | -83.63308 | 35883 ft | 393 kts | 268° |
| 2026-05-06 12:20 | 39.93017 | -83.70485 | 35908 ft | 393 kts | 267° |
| 2026-05-06 12:20 | 39.92787 | -83.77657 | 35906 ft | 392 kts | 267° |
| 2026-05-06 12:21 | 39.92552 | -83.84807 | 35913 ft | 391 kts | 268° |
| 2026-05-06 12:21 | 39.92314 | -83.91924 | 35922 ft | 391 kts | 267° |
| 2026-05-06 12:22 | 39.92073 | -83.99039 | 35915 ft | 391 kts | 267° |
| 2026-05-06 12:22 | 39.91825 | -84.06184 | 35920 ft | 391 kts | 267° |
| 2026-05-06 12:23 | 39.91573 | -84.13339 | 35919 ft | 391 kts | 267° |
| 2026-05-06 12:23 | 39.91315 | -84.20529 | 35918 ft | 390 kts | 267° |
| 2026-05-06 12:24 | 39.91055 | -84.27665 | 35917 ft | 390 kts | 267° |
| 2026-05-06 12:24 | 39.90791 | -84.34782 | 35914 ft | 390 kts | 267° |
| 2026-05-06 12:25 | 39.90522 | -84.41911 | 35911 ft | 390 kts | 267° |
| 2026-05-06 12:25 | 39.90248 | -84.49049 | 35910 ft | 390 kts | 267° |
| 2026-05-06 12:26 | 39.89973 | -84.56125 | 35900 ft | 390 kts | 267° |
| 2026-05-06 12:26 | 39.89691 | -84.63250 | 35887 ft | 390 kts | 267° |
| 2026-05-06 12:27 | 39.89453 | -84.69190 | 35915 ft | 390 kts | 266° |
| 2026-05-06 12:27 | 39.89113 | -84.77512 | 35919 ft | 390 kts | 267° |
| 2026-05-06 12:28 | 39.88819 | -84.84631 | 35917 ft | 391 kts | 267° |
| 2026-05-06 12:28 | 39.88518 | -84.91788 | 35917 ft | 390 kts | 266° |
| 2026-05-06 12:29 | 39.88216 | -84.98883 | 35912 ft | 390 kts | 266° |
| 2026-05-06 12:29 | 39.87907 | -85.06001 | 35910 ft | 389 kts | 267° |
| 2026-05-06 12:30 | 39.87595 | -85.13140 | 35909 ft | 389 kts | 266° |
| 2026-05-06 12:30 | 39.87280 | -85.20211 | 35911 ft | 389 kts | 266° |
| 2026-05-06 12:31 | 39.86960 | -85.27309 | 35914 ft | 389 kts | 266° |
| 2026-05-06 12:31 | 39.86635 | -85.34417 | 35915 ft | 389 kts | 266° |
| 2026-05-06 12:32 | 39.86308 | -85.41470 | 35915 ft | 388 kts | 266° |
| 2026-05-06 12:32 | 39.85977 | -85.48533 | 35910 ft | 388 kts | 266° |
| 2026-05-06 12:33 | 39.85641 | -85.55603 | 35908 ft | 388 kts | 266° |
| 2026-05-06 12:33 | 39.85298 | -85.62705 | 35904 ft | 388 kts | 266° |
| 2026-05-06 12:34 | 39.84956 | -85.69732 | 35937 ft | 388 kts | 265° |
| 2026-05-06 12:34 | 39.84606 | -85.76829 | 35944 ft | 388 kts | 265° |
| 2026-05-06 12:35 | 39.84253 | -85.83873 | 35947 ft | 388 kts | 266° |
| 2026-05-06 12:35 | 39.83894 | -85.90970 | 35946 ft | 388 kts | 265° |
| 2026-05-06 12:36 | 39.83535 | -85.97997 | 35947 ft | 388 kts | 266° |
| 2026-05-06 12:36 | 39.83168 | -86.05080 | 35945 ft | 388 kts | 265° |
| 2026-05-06 12:37 | 39.82841 | -86.11299 | 35945 ft | 388 kts | 266° |
| 2026-05-06 12:37 | 39.82466 | -86.18391 | 35947 ft | 388 kts | 265° |
| 2026-05-06 12:38 | 39.82089 | -86.25421 | 35942 ft | 387 kts | 266° |
| 2026-05-06 12:38 | 39.81705 | -86.32514 | 35939 ft | 387 kts | 265° |
| 2026-05-06 12:39 | 39.81359 | -86.39568 | 35945 ft | 387 kts | 267° |
| 2026-05-06 12:39 | 39.81182 | -86.46619 | 35938 ft | 388 kts | 267° |
| 2026-05-06 12:40 | 39.80993 | -86.53713 | 35941 ft | 388 kts | 267° |
| 2026-05-06 12:40 | 39.80795 | -86.60753 | 35930 ft | 388 kts | 267° |
| 2026-05-06 12:41 | 39.80589 | -86.67858 | 35967 ft | 388 kts | 266° |
| 2026-05-06 12:41 | 39.80376 | -86.74980 | 35964 ft | 388 kts | 267° |
| 2026-05-06 12:42 | 39.80162 | -86.82011 | 35961 ft | 388 kts | 266° |
| 2026-05-06 12:42 | 39.79964 | -86.88343 | 35962 ft | 388 kts | 267° |
| 2026-05-06 12:43 | 39.79752 | -86.95038 | 35958 ft | 387 kts | 266° |
| 2026-05-06 12:43 | 39.79525 | -87.02050 | 35953 ft | 387 kts | 266° |
| 2026-05-06 12:44 | 39.79292 | -87.09139 | 35952 ft | 387 kts | 266° |
| 2026-05-06 12:44 | 39.79058 | -87.16129 | 35952 ft | 386 kts | 266° |
| 2026-05-06 12:45 | 39.78817 | -87.23164 | 35950 ft | 386 kts | 267° |
| 2026-05-06 12:46 | 39.78450 | -87.33679 | 35949 ft | 386 kts | 266° |
| 2026-05-06 12:46 | 39.78199 | -87.40737 | 35948 ft | 386 kts | 266° |
| 2026-05-06 12:47 | 39.77944 | -87.47758 | 35949 ft | 385 kts | 267° |
| 2026-05-06 12:47 | 39.77686 | -87.54743 | 35947 ft | 385 kts | 266° |
| 2026-05-06 12:48 | 39.77424 | -87.61742 | 35947 ft | 384 kts | 266° |
| 2026-05-06 12:48 | 39.77159 | -87.68708 | 35977 ft | 385 kts | 266° |
| 2026-05-06 12:49 | 39.76886 | -87.75751 | 35977 ft | 386 kts | 266° |
| 2026-05-06 12:49 | 39.76613 | -87.82719 | 35974 ft | 385 kts | 266° |
| 2026-05-06 12:50 | 39.76332 | -87.89743 | 35970 ft | 385 kts | 266° |
| 2026-05-06 12:50 | 39.76050 | -87.96712 | 35964 ft | 385 kts | 266° |
| 2026-05-06 12:51 | 39.75763 | -88.03702 | 35963 ft | 384 kts | 266° |
| 2026-05-06 12:51 | 39.75473 | -88.10657 | 35962 ft | 385 kts | 266° |
| 2026-05-06 12:52 | 39.75177 | -88.17654 | 35961 ft | 384 kts | 266° |
| 2026-05-06 12:52 | 39.74878 | -88.24608 | 35960 ft | 384 kts | 266° |
| 2026-05-06 12:53 | 39.74574 | -88.31596 | 35959 ft | 384 kts | 266° |
| 2026-05-06 12:53 | 39.74267 | -88.38564 | 35958 ft | 383 kts | 266° |
| 2026-05-06 12:54 | 39.73957 | -88.45509 | 35957 ft | 383 kts | 265° |
| 2026-05-06 12:54 | 39.73674 | -88.51747 | 35957 ft | 383 kts | 266° |
| 2026-05-06 12:55 | 39.73385 | -88.58067 | 35957 ft | 382 kts | 265° |
| 2026-05-06 12:55 | 39.73126 | -88.63639 | 35956 ft | 382 kts | 266° |
| 2026-05-06 12:56 | 39.72798 | -88.70644 | 35984 ft | 384 kts | 265° |
| 2026-05-06 12:56 | 39.72469 | -88.77578 | 35985 ft | 383 kts | 265° |
| 2026-05-06 12:57 | 39.72134 | -88.84548 | 35985 ft | 384 kts | 265° |
| 2026-05-06 12:57 | 39.71794 | -88.91529 | 35984 ft | 383 kts | 265° |
| 2026-05-06 12:58 | 39.71452 | -88.98454 | 35982 ft | 383 kts | 265° |
| 2026-05-06 12:58 | 39.71106 | -89.05397 | 35980 ft | 383 kts | 265° |
| 2026-05-06 12:59 | 39.70755 | -89.12351 | 35978 ft | 382 kts | 265° |
| 2026-05-06 12:59 | 39.70400 | -89.19293 | 35978 ft | 382 kts | 265° |
| 2026-05-06 13:00 | 39.70042 | -89.26225 | 35980 ft | 383 kts | 265° |
| 2026-05-06 13:00 | 39.69679 | -89.33164 | 35979 ft | 382 kts | 265° |
| 2026-05-06 13:01 | 39.69313 | -89.40081 | 35977 ft | 382 kts | 265° |
| 2026-05-06 13:01 | 39.68943 | -89.46996 | 35981 ft | 382 kts | 265° |
| 2026-05-06 13:02 | 39.68568 | -89.53931 | 35973 ft | 381 kts | 265° |
| 2026-05-06 13:02 | 39.68191 | -89.60823 | 35999 ft | 381 kts | 265° |
| 2026-05-06 13:02 | 39.68009 | -89.64130 | 36372 ft | 375 kts | 265° |
| 2026-05-06 13:03 | 39.67867 | -89.66710 | 36907 ft | 369 kts | 264° |
| 2026-05-06 13:03 | 39.67683 | -89.70016 | 37738 ft | 361 kts | 265° |
| 2026-05-06 13:03 | 39.67498 | -89.73309 | 37991 ft | 366 kts | 265° |
| 2026-05-06 13:04 | 39.67115 | -89.80092 | 38002 ft | 377 kts | 265° |
| 2026-05-06 13:04 | 39.66723 | -89.86987 | 38008 ft | 380 kts | 264° |
| 2026-05-06 13:05 | 39.66324 | -89.93916 | 38000 ft | 381 kts | 265° |
| 2026-05-06 13:05 | 39.65922 | -90.00819 | 37999 ft | 380 kts | 265° |
| 2026-05-06 13:06 | 39.65517 | -90.07715 | 38007 ft | 380 kts | 264° |
| 2026-05-06 13:06 | 39.65109 | -90.14606 | 38012 ft | 380 kts | 265° |
| 2026-05-06 13:07 | 39.64697 | -90.21481 | 38009 ft | 380 kts | 265° |
| 2026-05-06 13:07 | 39.64281 | -90.28339 | 37997 ft | 380 kts | 265° |
| 2026-05-06 13:08 | 39.63856 | -90.35291 | 38003 ft | 381 kts | 264° |
| 2026-05-06 13:08 | 39.63431 | -90.42174 | 38006 ft | 381 kts | 264° |
| 2026-05-06 13:09 | 39.62998 | -90.49117 | 37994 ft | 381 kts | 265° |
| 2026-05-06 13:09 | 39.62566 | -90.55983 | 38002 ft | 381 kts | 265° |
| 2026-05-06 13:10 | 39.62125 | -90.62923 | 38002 ft | 380 kts | 265° |
| 2026-05-06 13:10 | 39.61685 | -90.69785 | 38018 ft | 380 kts | 264° |
| 2026-05-06 13:11 | 39.61236 | -90.76719 | 38042 ft | 381 kts | 265° |
| 2026-05-06 13:11 | 39.60787 | -90.83592 | 38036 ft | 382 kts | 265° |
| 2026-05-06 13:12 | 39.60332 | -90.90493 | 38046 ft | 381 kts | 264° |
| 2026-05-06 13:12 | 39.59872 | -90.97397 | 38036 ft | 381 kts | 265° |
| 2026-05-06 13:13 | 39.59413 | -91.04240 | 38018 ft | 381 kts | 264° |
| 2026-05-06 13:13 | 39.58946 | -91.11131 | 38011 ft | 381 kts | 265° |
| 2026-05-06 13:14 | 39.58478 | -91.17986 | 38017 ft | 381 kts | 264° |
| 2026-05-06 13:14 | 39.58004 | -91.24857 | 38024 ft | 381 kts | 265° |
| 2026-05-06 13:15 | 39.57527 | -91.31720 | 38023 ft | 381 kts | 264° |
| 2026-05-06 13:15 | 39.57045 | -91.38592 | 38017 ft | 381 kts | 264° |
| 2026-05-06 13:16 | 39.56560 | -91.45454 | 38030 ft | 381 kts | 264° |
| 2026-05-06 13:16 | 39.56069 | -91.52330 | 38021 ft | 381 kts | 264° |
| 2026-05-06 13:17 | 39.55577 | -91.59165 | 38029 ft | 381 kts | 264° |
| 2026-05-06 13:17 | 39.55155 | -91.64994 | 38020 ft | 381 kts | 264° |
| 2026-05-06 13:18 | 39.54653 | -91.71868 | 38055 ft | 381 kts | 263° |
| 2026-05-06 13:18 | 39.54145 | -91.78775 | 38050 ft | 381 kts | 263° |
| 2026-05-06 13:19 | 39.53636 | -91.85626 | 38054 ft | 381 kts | 264° |
| 2026-05-06 13:19 | 39.53119 | -91.92529 | 38056 ft | 381 kts | 263° |
| 2026-05-06 13:20 | 39.52599 | -91.99433 | 38050 ft | 381 kts | 263° |
| 2026-05-06 13:20 | 39.52075 | -92.06319 | 38059 ft | 381 kts | 264° |
| 2026-05-06 13:21 | 39.51548 | -92.13192 | 38058 ft | 381 kts | 264° |
| 2026-05-06 13:21 | 39.51015 | -92.20091 | 38055 ft | 381 kts | 264° |
| 2026-05-06 13:22 | 39.50480 | -92.26976 | 38061 ft | 382 kts | 263° |
| 2026-05-06 13:22 | 39.49941 | -92.33840 | 38051 ft | 381 kts | 263° |
| 2026-05-06 13:23 | 39.49399 | -92.40700 | 38043 ft | 382 kts | 264° |
| 2026-05-06 13:23 | 39.48853 | -92.47546 | 38049 ft | 382 kts | 264° |
| 2026-05-06 13:24 | 39.48298 | -92.54468 | 38050 ft | 382 kts | 264° |
| 2026-05-06 13:24 | 39.47744 | -92.61314 | 38052 ft | 382 kts | 264° |
| 2026-05-06 13:25 | 39.47181 | -92.68238 | 38079 ft | 382 kts | 263° |
| 2026-05-06 13:25 | 39.46616 | -92.75124 | 38073 ft | 383 kts | 262° |
| 2026-05-06 13:26 | 39.46043 | -92.82056 | 38070 ft | 384 kts | 263° |
| 2026-05-06 13:26 | 39.45468 | -92.88950 | 38071 ft | 384 kts | 262° |
| 2026-05-06 13:27 | 39.44886 | -92.95892 | 38064 ft | 384 kts | 263° |
| 2026-05-06 13:27 | 39.44305 | -93.02778 | 38071 ft | 383 kts | 263° |
| 2026-05-06 13:28 | 39.43719 | -93.09658 | 38068 ft | 384 kts | 263° |
| 2026-05-06 13:28 | 39.43126 | -93.16587 | 38072 ft | 383 kts | 263° |
| 2026-05-06 13:29 | 39.42531 | -93.23473 | 38070 ft | 383 kts | 262° |
| 2026-05-06 13:29 | 39.41934 | -93.30346 | 38069 ft | 384 kts | 263° |
| 2026-05-06 13:30 | 39.41329 | -93.37257 | 38068 ft | 383 kts | 263° |
| 2026-05-06 13:30 | 39.40721 | -93.44162 | 38067 ft | 383 kts | 263° |
| 2026-05-06 13:31 | 39.40106 | -93.51091 | 38066 ft | 383 kts | 263° |
| 2026-05-06 13:31 | 39.39493 | -93.57953 | 38068 ft | 384 kts | 262° |
| 2026-05-06 13:32 | 39.38869 | -93.64889 | 38068 ft | 383 kts | 262° |
| 2026-05-06 13:32 | 39.38244 | -93.71802 | 38101 ft | 385 kts | 262° |
| 2026-05-06 13:33 | 39.37616 | -93.78688 | 38098 ft | 385 kts | 262° |
| 2026-05-06 13:33 | 39.36981 | -93.85609 | 38098 ft | 385 kts | 262° |
| 2026-05-06 13:34 | 39.36342 | -93.92529 | 38096 ft | 385 kts | 262° |
| 2026-05-06 13:34 | 39.35701 | -93.99418 | 38093 ft | 386 kts | 262° |
| 2026-05-06 13:35 | 39.35056 | -94.06306 | 38090 ft | 385 kts | 262° |
| 2026-05-06 13:35 | 39.34401 | -94.13268 | 38089 ft | 386 kts | 262° |
| 2026-05-06 13:36 | 39.33751 | -94.20124 | 38097 ft | 387 kts | 262° |
| 2026-05-06 13:36 | 39.33088 | -94.27071 | 38100 ft | 386 kts | 262° |
| 2026-05-06 13:37 | 39.32424 | -94.33982 | 38089 ft | 387 kts | 261° |
| 2026-05-06 13:37 | 39.31834 | -94.40095 | 38082 ft | 387 kts | 261° |
| 2026-05-06 13:38 | 39.31161 | -94.47026 | 38091 ft | 387 kts | 262° |
| 2026-05-06 13:38 | 39.30483 | -94.53954 | 38087 ft | 386 kts | 262° |
| 2026-05-06 13:39 | 39.29798 | -94.60924 | 38085 ft | 386 kts | 261° |
| 2026-05-06 13:39 | 39.29113 | -94.67841 | 38113 ft | 387 kts | 261° |
| 2026-05-06 13:40 | 39.28395 | -94.74812 | 38109 ft | 388 kts | 260° |
| 2026-05-06 13:40 | 39.27626 | -94.81705 | 38107 ft | 388 kts | 261° |
| 2026-05-06 13:41 | 39.26843 | -94.88660 | 38111 ft | 388 kts | 261° |
| 2026-05-06 13:41 | 39.26055 | -94.95605 | 38104 ft | 388 kts | 260° |
| 2026-05-06 13:42 | 39.25260 | -95.02575 | 38101 ft | 388 kts | 261° |
| 2026-05-06 13:42 | 39.24461 | -95.09531 | 38095 ft | 389 kts | 261° |
| 2026-05-06 13:43 | 39.23786 | -95.15384 | 38100 ft | 389 kts | 261° |
| 2026-05-06 13:43 | 39.22980 | -95.22330 | 38094 ft | 389 kts | 260° |
| 2026-05-06 13:44 | 39.22169 | -95.29291 | 38091 ft | 389 kts | 260° |
| 2026-05-06 13:44 | 39.21359 | -95.36201 | 38100 ft | 390 kts | 261° |
| 2026-05-06 13:45 | 39.20536 | -95.43186 | 38099 ft | 389 kts | 261° |
| 2026-05-06 13:45 | 39.19299 | -95.53609 | 38095 ft | 389 kts | 261° |
| 2026-05-06 13:46 | 39.18467 | -95.60583 | 38101 ft | 390 kts | 260° |
| 2026-05-06 13:46 | 39.17630 | -95.67554 | 38129 ft | 389 kts | 259° |
| 2026-05-06 13:47 | 39.16795 | -95.74478 | 38128 ft | 390 kts | 260° |
| 2026-05-06 13:47 | 39.15947 | -95.81468 | 38130 ft | 390 kts | 259° |
| 2026-05-06 13:48 | 39.15100 | -95.88417 | 38130 ft | 390 kts | 259° |
| 2026-05-06 13:48 | 39.14250 | -95.95358 | 38129 ft | 390 kts | 259° |
| 2026-05-06 13:49 | 39.13389 | -96.02352 | 38125 ft | 390 kts | 259° |
| 2026-05-06 13:49 | 39.12528 | -96.09309 | 38126 ft | 391 kts | 259° |
| 2026-05-06 13:50 | 39.11660 | -96.16286 | 38120 ft | 392 kts | 259° |
| 2026-05-06 13:50 | 39.10786 | -96.23270 | 38112 ft | 392 kts | 260° |
| 2026-05-06 13:51 | 39.09910 | -96.30245 | 38117 ft | 392 kts | 259° |
| 2026-05-06 13:51 | 39.09029 | -96.37223 | 38119 ft | 392 kts | 260° |
| 2026-05-06 13:52 | 39.08170 | -96.43998 | 38111 ft | 392 kts | 259° |
| 2026-05-06 13:52 | 39.07363 | -96.50325 | 38115 ft | 393 kts | 259° |
| 2026-05-06 13:53 | 39.06472 | -96.57279 | 38114 ft | 393 kts | 259° |
| 2026-05-06 13:53 | 39.05574 | -96.64259 | 38124 ft | 393 kts | 259° |
| 2026-05-06 13:54 | 39.04666 | -96.71283 | 38141 ft | 394 kts | 259° |
| 2026-05-06 13:54 | 39.03760 | -96.78246 | 38155 ft | 394 kts | 259° |
| 2026-05-06 13:55 | 39.02851 | -96.85216 | 38137 ft | 393 kts | 258° |
| 2026-05-06 13:55 | 39.01932 | -96.92216 | 38133 ft | 394 kts | 259° |
| 2026-05-06 13:56 | 39.01007 | -96.99232 | 38125 ft | 394 kts | 258° |
| 2026-05-06 13:56 | 39.00080 | -97.06230 | 38129 ft | 394 kts | 259° |
| 2026-05-06 13:57 | 38.99152 | -97.13203 | 38132 ft | 394 kts | 259° |
| 2026-05-06 13:57 | 38.98213 | -97.20219 | 38120 ft | 394 kts | 258° |
| 2026-05-06 13:58 | 38.97418 | -97.26135 | 38113 ft | 395 kts | 259° |
| 2026-05-06 13:58 | 38.96470 | -97.33164 | 38131 ft | 396 kts | 259° |
| 2026-05-06 13:59 | 38.95516 | -97.40202 | 38126 ft | 396 kts | 259° |
| 2026-05-06 13:59 | 38.94557 | -97.47240 | 38125 ft | 396 kts | 259° |
| 2026-05-06 14:00 | 38.93595 | -97.54275 | 38137 ft | 396 kts | 259° |
| 2026-05-06 14:00 | 38.92628 | -97.61308 | 38126 ft | 396 kts | 258° |
| 2026-05-06 14:01 | 38.91575 | -97.68336 | 38154 ft | 398 kts | 257° |
| 2026-05-06 14:01 | 38.90480 | -97.75357 | 38156 ft | 399 kts | 257° |
| 2026-05-06 14:02 | 38.89383 | -97.82391 | 38157 ft | 398 kts | 258° |
| 2026-05-06 14:02 | 38.88281 | -97.89442 | 38162 ft | 400 kts | 257° |
| 2026-05-06 14:03 | 38.87180 | -97.96465 | 38152 ft | 399 kts | 258° |
| 2026-05-06 14:03 | 38.86069 | -98.03521 | 38148 ft | 400 kts | 258° |
| 2026-05-06 14:04 | 38.84956 | -98.10567 | 38136 ft | 400 kts | 258° |
| 2026-05-06 14:04 | 38.83847 | -98.17556 | 38131 ft | 400 kts | 257° |
| 2026-05-06 14:05 | 38.82726 | -98.24596 | 38135 ft | 400 kts | 257° |
| 2026-05-06 14:05 | 38.81594 | -98.31675 | 38143 ft | 402 kts | 257° |
| 2026-05-06 14:06 | 38.80459 | -98.38745 | 38135 ft | 402 kts | 257° |
| 2026-05-06 14:06 | 38.79320 | -98.45812 | 38129 ft | 402 kts | 257° |
| 2026-05-06 14:07 | 38.78180 | -98.52850 | 38129 ft | 403 kts | 257° |
| 2026-05-06 14:07 | 38.77029 | -98.59934 | 38124 ft | 404 kts | 257° |
| 2026-05-06 14:08 | 38.75874 | -98.67011 | 38139 ft | 404 kts | 257° |
| 2026-05-06 14:08 | 38.74701 | -98.74171 | 38162 ft | 405 kts | 257° |
| 2026-05-06 14:09 | 38.73533 | -98.81268 | 38155 ft | 406 kts | 257° |
| 2026-05-06 14:09 | 38.72502 | -98.87515 | 38151 ft | 407 kts | 257° |
| 2026-05-06 14:10 | 38.71322 | -98.94632 | 38147 ft | 407 kts | 257° |
| 2026-05-06 14:10 | 38.70132 | -99.01786 | 38137 ft | 406 kts | 256° |
| 2026-05-06 14:11 | 38.68948 | -99.08875 | 38142 ft | 406 kts | 257° |
| 2026-05-06 14:11 | 38.67753 | -99.15997 | 38146 ft | 407 kts | 257° |
| 2026-05-06 14:12 | 38.66550 | -99.23141 | 38142 ft | 407 kts | 256° |
| 2026-05-06 14:12 | 38.65350 | -99.30237 | 38145 ft | 409 kts | 257° |
| 2026-05-06 14:13 | 38.64125 | -99.37456 | 38145 ft | 410 kts | 257° |
| 2026-05-06 14:13 | 38.62905 | -99.44619 | 38130 ft | 408 kts | 256° |
| 2026-05-06 14:14 | 38.61682 | -99.51764 | 38130 ft | 410 kts | 256° |
| 2026-05-06 14:14 | 38.60650 | -99.57780 | 38127 ft | 410 kts | 256° |
| 2026-05-06 14:15 | 38.59413 | -99.64960 | 38128 ft | 411 kts | 257° |
| 2026-05-06 14:15 | 38.58170 | -99.72146 | 38156 ft | 411 kts | 256° |
| 2026-05-06 14:16 | 38.56922 | -99.79336 | 38162 ft | 411 kts | 256° |
| 2026-05-06 14:16 | 38.55674 | -99.86495 | 38150 ft | 412 kts | 256° |
| 2026-05-06 14:17 | 38.54417 | -99.93675 | 38151 ft | 411 kts | 256° |
| 2026-05-06 14:17 | 38.53156 | -100.00857 | 38147 ft | 410 kts | 256° |
| 2026-05-06 14:18 | 38.52323 | -100.05582 | 38190 ft | 410 kts | 256° |
| 2026-05-06 14:18 | 38.51059 | -100.12738 | 38121 ft | 406 kts | 256° |
| 2026-05-06 14:19 | 38.49804 | -100.19811 | 38120 ft | 406 kts | 256° |
| 2026-05-06 14:19 | 38.48547 | -100.26869 | 38117 ft | 407 kts | 256° |
| 2026-05-06 14:20 | 38.47269 | -100.34017 | 38117 ft | 411 kts | 256° |
| 2026-05-06 14:20 | 38.45977 | -100.41214 | 38131 ft | 414 kts | 255° |
| 2026-05-06 14:21 | 38.44679 | -100.48421 | 38119 ft | 414 kts | 256° |
| 2026-05-06 14:21 | 38.43374 | -100.55640 | 38120 ft | 415 kts | 256° |
| 2026-05-06 14:22 | 38.42057 | -100.62897 | 38115 ft | 416 kts | 256° |
| 2026-05-06 14:22 | 38.40731 | -100.70179 | 38139 ft | 418 kts | 255° |
| 2026-05-06 14:23 | 38.39403 | -100.77442 | 38149 ft | 418 kts | 256° |
| 2026-05-06 14:23 | 38.38076 | -100.84676 | 38158 ft | 417 kts | 256° |
| 2026-05-06 14:24 | 38.36730 | -100.91982 | 38156 ft | 420 kts | 255° |
| 2026-05-06 14:24 | 38.35382 | -100.99273 | 38141 ft | 420 kts | 255° |
| 2026-05-06 14:25 | 38.34029 | -101.06560 | 38119 ft | 421 kts | 255° |
| 2026-05-06 14:25 | 38.32663 | -101.13892 | 38117 ft | 421 kts | 255° |
| 2026-05-06 14:26 | 38.31301 | -101.21181 | 38105 ft | 422 kts | 255° |
| 2026-05-06 14:26 | 38.29915 | -101.28566 | 38093 ft | 422 kts | 256° |
| 2026-05-06 14:27 | 38.28545 | -101.35841 | 38101 ft | 422 kts | 255° |
| 2026-05-06 14:27 | 38.27159 | -101.43173 | 38095 ft | 423 kts | 255° |
| 2026-05-06 14:28 | 38.25769 | -101.50495 | 38089 ft | 423 kts | 255° |
| 2026-05-06 14:28 | 38.24362 | -101.57883 | 38098 ft | 425 kts | 255° |
| 2026-05-06 14:29 | 38.22961 | -101.65214 | 38099 ft | 425 kts | 255° |
| 2026-05-06 14:29 | 38.21556 | -101.72540 | 38117 ft | 426 kts | 254° |
| 2026-05-06 14:30 | 38.20341 | -101.78853 | 38112 ft | 427 kts | 254° |
| 2026-05-06 14:30 | 38.18919 | -101.86217 | 38113 ft | 428 kts | 254° |
| 2026-05-06 14:31 | 38.17484 | -101.93617 | 38105 ft | 429 kts | 255° |
| 2026-05-06 14:31 | 38.16038 | -102.01051 | 38112 ft | 430 kts | 255° |
| 2026-05-06 14:32 | 38.14587 | -102.08485 | 38108 ft | 429 kts | 254° |
| 2026-05-06 14:32 | 38.13130 | -102.15919 | 38110 ft | 431 kts | 255° |
| 2026-05-06 14:33 | 38.11664 | -102.23374 | 38108 ft | 432 kts | 254° |
| 2026-05-06 14:33 | 38.10194 | -102.30821 | 38108 ft | 432 kts | 254° |
| 2026-05-06 14:34 | 38.08712 | -102.38305 | 38108 ft | 434 kts | 255° |
| 2026-05-06 14:34 | 38.07218 | -102.45820 | 38113 ft | 434 kts | 255° |
| 2026-05-06 14:35 | 38.05727 | -102.53296 | 38115 ft | 434 kts | 255° |
| 2026-05-06 14:35 | 38.04225 | -102.60796 | 38108 ft | 435 kts | 255° |
| 2026-05-06 14:36 | 38.02717 | -102.68298 | 38119 ft | 435 kts | 254° |
| 2026-05-06 14:36 | 38.01203 | -102.75806 | 38119 ft | 436 kts | 254° |
| 2026-05-06 14:37 | 37.99685 | -102.83307 | 38122 ft | 437 kts | 254° |
| 2026-05-06 14:37 | 37.98159 | -102.90824 | 38120 ft | 437 kts | 254° |
| 2026-05-06 14:38 | 37.96627 | -102.98338 | 38120 ft | 438 kts | 254° |
| 2026-05-06 14:38 | 37.95087 | -103.05865 | 38108 ft | 439 kts | 254° |
| 2026-05-06 14:39 | 37.93539 | -103.13409 | 38104 ft | 439 kts | 254° |
| 2026-05-06 14:39 | 37.91988 | -103.20936 | 38093 ft | 439 kts | 254° |
| 2026-05-06 14:40 | 37.90422 | -103.28513 | 38094 ft | 439 kts | 254° |
| 2026-05-06 14:40 | 37.88854 | -103.36071 | 38109 ft | 441 kts | 255° |
| 2026-05-06 14:41 | 37.87282 | -103.43624 | 38108 ft | 441 kts | 254° |
| 2026-05-06 14:41 | 37.85706 | -103.51167 | 38102 ft | 443 kts | 255° |
| 2026-05-06 14:42 | 37.84106 | -103.58800 | 38101 ft | 443 kts | 255° |
| 2026-05-06 14:42 | 37.82511 | -103.66378 | 38109 ft | 443 kts | 254° |
| 2026-05-06 14:43 | 37.80915 | -103.73943 | 38110 ft | 445 kts | 254° |
| 2026-05-06 14:43 | 37.79297 | -103.81581 | 38104 ft | 447 kts | 255° |
| 2026-05-06 14:44 | 37.77666 | -103.89253 | 38100 ft | 446 kts | 254° |
| 2026-05-06 14:45 | 37.75216 | -104.00726 | 38100 ft | 447 kts | 255° |
| 2026-05-06 14:45 | 37.73581 | -104.08354 | 38102 ft | 448 kts | 255° |
| 2026-05-06 14:46 | 37.71937 | -104.15991 | 38098 ft | 449 kts | 254° |
| 2026-05-06 14:46 | 37.70282 | -104.23660 | 38093 ft | 449 kts | 254° |
| 2026-05-06 14:47 | 37.68632 | -104.31274 | 38093 ft | 449 kts | 255° |